Time;durP1;ratioP1;P1;durP2;ratioP2;P2;SDS_P1;SDS_P2;PMS_P1;PMS_P2;Temp;Humidity;BMP_temperature;BMP_pressure;BME280_temperature;BME280_humidity;BME280_pressure;Samples;Min_cycle;Max_cycle;Signal;HPM_P1;HPM_P2
2024/04/20 00:00:08;;;;;;;5.03;4.53;;;;;;;9.77;59.64;100682.38;5276750;27;20231;-73
2024/04/20 00:02:33;;;;;;;3.40;2.90;;;;;;;9.91;59.19;100682.53;5276768;27;20827;-75
2024/04/20 00:04:59;;;;;;;4.07;3.77;;;;;;;9.99;59.33;100690.44;5276684;27;20764;-74
2024/04/20 00:07:24;;;;;;;3.93;3.13;;;;;;;10.04;59.68;100700.06;5277030;27;20615;-74
2024/04/20 00:09:49;;;;;;;4.50;3.20;;;;;;;9.88;59.88;100703.34;5276857;27;20281;-74
2024/04/20 00:12:15;;;;;;;3.93;3.40;;;;;;;10.13;59.47;100701.00;5276882;27;20667;-74
2024/04/20 00:14:40;;;;;;;3.90;3.60;;;;;;;9.99;59.92;100708.69;5276635;27;20274;-74
2024/04/20 00:17:06;;;;;;;3.83;3.53;;;;;;;9.86;60.33;100715.44;5276549;27;20354;-74
2024/04/20 00:19:31;;;;;;;7.73;3.67;;;;;;;9.76;60.85;100714.47;5276543;27;20227;-74
2024/04/20 00:21:57;;;;;;;3.87;3.47;;;;;;;9.73;60.84;100715.31;5276664;27;20581;-74
2024/04/20 00:24:23;;;;;;;3.70;3.40;;;;;;;9.33;61.82;100717.38;5276585;27;20688;-74
2024/04/20 00:26:48;;;;;;;4.13;3.73;;;;;;;9.50;61.49;100716.72;5276281;27;20518;-75
2024/04/20 00:29:14;;;;;;;3.73;3.43;;;;;;;9.60;61.51;100716.84;5276262;27;20608;-74
2024/04/20 00:31:39;;;;;;;3.83;3.40;;;;;;;9.53;61.77;100729.78;5246498;27;20218;-74
2024/04/20 00:34:04;;;;;;;4.20;3.60;;;;;;;9.50;61.77;100727.13;5276235;27;20634;-74
2024/04/20 00:36:30;;;;;;;3.67;3.37;;;;;;;9.56;61.67;100727.22;5276580;27;20231;-74
2024/04/20 00:38:55;;;;;;;4.33;3.93;;;;;;;9.76;61.66;100727.50;5276353;27;20333;-75
2024/04/20 00:41:21;;;;;;;4.20;3.80;;;;;;;9.68;61.74;100724.78;5276421;27;20706;-75
2024/04/20 00:43:46;;;;;;;4.37;3.97;;;;;;;9.56;61.89;100737.63;5276631;27;20702;-75
2024/04/20 00:46:12;;;;;;;4.57;4.00;;;;;;;9.69;61.47;100739.56;5276885;27;20220;-75
2024/04/20 00:48:37;;;;;;;4.67;4.27;;;;;;;9.46;62.14;100744.44;5276398;27;20231;-75
2024/04/20 00:51:03;;;;;;;4.80;4.40;;;;;;;9.49;62.46;100747.09;5277173;27;20220;-76
2024/04/20 00:53:31;;;;;;;5.00;4.20;;;;;;;9.56;62.21;100754.13;5277882;27;20701;-75
2024/04/20 00:55:57;;;;;;;4.30;3.90;;;;;;;9.37;62.09;100760.78;5282280;27;20498;-75
2024/04/20 00:58:23;;;;;;;4.33;3.90;;;;;;;9.68;61.78;100758.63;5280732;27;20451;-75
2024/04/20 01:00:48;;;;;;;4.00;3.60;;;;;;;9.80;60.87;100755.31;5281161;27;20442;-76
2024/04/20 01:03:14;;;;;;;4.53;3.80;;;;;;;9.70;61.19;100763.84;5281512;27;20223;-76
2024/04/20 01:05:39;;;;;;;4.40;4.00;;;;;;;9.69;61.91;100767.31;5279661;27;20223;-75
2024/04/20 01:08:05;;;;;;;4.70;3.93;;;;;;;9.85;61.39;100768.38;5279826;27;20292;-77
2024/04/20 01:10:31;;;;;;;3.70;3.40;;;;;;;9.88;63.27;100773.66;5249836;27;20227;-75
2024/04/20 01:13:04;;;;;;;3.70;3.40;;;;;;;9.99;61.16;100776.38;5279499;27;20989;-75
2024/04/20 01:15:29;;;;;;;4.00;3.70;;;;;;;9.64;61.41;100789.81;5279317;27;20291;-74
2024/04/20 01:17:54;;;;;;;4.10;3.30;;;;;;;9.51;61.82;100783.53;5249172;27;20457;-75
2024/04/20 01:20:20;;;;;;;4.00;3.70;;;;;;;9.80;60.88;100786.56;5278837;27;20269;-74
2024/04/20 01:22:45;;;;;;;4.10;3.67;;;;;;;9.64;61.27;100793.28;5279559;27;20540;-74
2024/04/20 01:25:13;;;;;;;5.50;4.63;;;;;;;9.69;61.45;100799.44;5279133;27;20756;-74
2024/04/20 01:27:38;;;;;;;3.87;3.50;;;;;;;9.52;61.81;100803.50;5278852;27;20227;-74
2024/04/20 01:30:08;;;;;;;4.80;3.53;;;;;;;9.73;61.33;100803.81;5249142;27;20502;-75
2024/04/20 01:32:33;;;;;;;3.93;3.57;;;;;;;9.65;61.49;100802.84;5279040;27;20745;-76
2024/04/20 01:34:58;;;;;;;4.23;3.77;;;;;;;9.72;61.32;100804.66;5278732;27;20566;-75
2024/04/20 01:37:24;;;;;;;3.90;3.60;;;;;;;9.64;61.57;100815.84;5278653;27;20783;-75
2024/04/20 01:39:49;;;;;;;4.20;3.60;;;;;;;8.88;63.04;100815.47;5278422;27;20235;-74
2024/04/20 01:42:14;;;;;;;4.20;3.80;;;;;;;9.60;62.28;100817.50;5278596;27;20345;-74
2024/04/20 01:44:40;;;;;;;4.03;3.63;;;;;;;9.59;60.99;100826.16;5278609;27;20227;-75
2024/04/20 01:47:05;;;;;;;4.20;3.80;;;;;;;9.80;61.25;100830.81;5278449;27;20337;-74
2024/04/20 01:49:30;;;;;;;4.00;3.60;;;;;;;9.88;61.23;100839.63;5248513;27;20239;-74
2024/04/20 01:51:55;;;;;;;6.70;4.00;;;;;;;9.76;60.95;100844.66;5278751;27;20764;-75
2024/04/20 01:54:21;;;;;;;4.47;4.07;;;;;;;9.69;60.78;100846.28;5278588;27;20223;-75
2024/04/20 01:56:47;;;;;;;3.80;3.40;;;;;;;9.76;60.37;100845.50;5278476;27;20223;-75
2024/04/20 01:59:12;;;;;;;7.00;4.10;;;;;;;9.66;60.67;100841.03;5278537;27;20235;-75
2024/04/20 02:01:41;;;;;;;4.60;4.20;;;;;;;10.04;59.67;100839.81;5279088;27;20458;-75
2024/04/20 02:04:06;;;;;;;4.20;3.73;;;;;;;9.70;60.04;100844.53;5248550;27;20239;-75
2024/04/20 02:06:31;;;;;;;4.00;3.70;;;;;;;9.89;59.42;100851.78;5278363;27;20506;-75
2024/04/20 02:08:58;;;;;;;4.80;4.27;;;;;;;9.48;60.66;100848.56;5312485;22;20305;-81
2024/04/20 02:11:23;;;;;;;5.00;4.20;;;;;;;9.85;59.42;100847.38;5313331;27;20704;-82
2024/04/20 02:13:49;;;;;;;4.17;3.80;;;;;;;9.65;59.56;100849.69;5315900;26;20491;-80
2024/04/20 02:16:16;;;;;;;5.57;3.90;;;;;;;9.81;59.42;100855.13;5313547;27;20242;-82
2024/04/20 02:18:42;;;;;;;4.23;3.83;;;;;;;9.65;58.92;100865.31;5314850;26;20309;-83
2024/04/20 02:21:09;;;;;;;6.10;4.03;;;;;;;9.29;59.62;100866.47;5316058;26;20457;-81
2024/04/20 02:23:36;;;;;;;4.40;4.00;;;;;;;9.53;59.56;100871.19;5316088;26;20252;-80
2024/04/20 02:26:01;;;;;;;6.43;4.57;;;;;;;9.57;59.30;100875.59;5315995;26;20540;-82
2024/04/20 02:28:27;;;;;;;4.83;4.40;;;;;;;9.44;59.58;100877.13;5314883;26;20468;-81
2024/04/20 02:30:52;;;;;;;4.40;4.00;;;;;;;9.48;58.99;100877.19;5315628;26;20271;-81
2024/04/20 02:33:17;;;;;;;4.70;4.30;;;;;;;9.46;59.36;100884.97;5315450;26;20230;-81
2024/04/20 02:35:42;;;;;;;4.20;3.90;;;;;;;9.24;59.39;100887.19;5314817;26;20324;-81
2024/04/20 02:38:08;;;;;;;4.57;4.17;;;;;;;9.10;59.45;100886.94;5312679;27;20704;-82
2024/04/20 02:40:33;;;;;;;4.40;4.00;;;;;;;9.12;58.79;100883.50;5317612;26;20218;-81
2024/04/20 02:42:58;;;;;;;4.40;4.00;;;;;;;9.33;58.70;100886.47;5317050;26;20222;-81
2024/04/20 02:45:24;;;;;;;4.33;3.93;;;;;;;9.38;58.25;100889.16;5316585;26;20218;-81
2024/04/20 02:47:49;;;;;;;4.40;4.00;;;;;;;9.21;58.32;100896.66;5314082;26;20649;-80
2024/04/20 02:50:14;;;;;;;5.03;4.03;;;;;;;9.29;58.50;100897.69;5314468;26;20280;-82
2024/04/20 02:52:40;;;;;;;4.00;3.63;;;;;;;9.31;58.16;100897.69;5314581;26;20233;-81
2024/04/20 02:55:05;;;;;;;4.77;3.73;;;;;;;9.21;58.63;100907.06;5314650;26;20416;-82
2024/04/20 02:57:30;;;;;;;4.63;4.23;;;;;;;9.17;58.22;100913.94;5312593;27;20230;-80
2024/04/20 02:59:56;;;;;;;5.43;4.93;;;;;;;9.08;58.69;100912.06;5313922;26;20242;-81
2024/04/20 03:02:21;;;;;;;4.90;4.10;;;;;;;8.92;58.48;100910.88;5323553;26;20264;-79
2024/04/20 03:04:46;;;;;;;16.50;13.47;;;;;;;8.91;58.28;100924.72;5317524;27;20230;-80
2024/04/20 03:07:11;;;;;;;6.60;5.90;;;;;;;8.89;58.66;100926.44;5314685;27;20214;-79
2024/04/20 03:09:37;;;;;;;5.00;4.50;;;;;;;8.80;58.78;100926.25;5313853;26;20269;-83
2024/04/20 03:12:03;;;;;;;5.00;4.40;;;;;;;8.86;58.05;100925.50;5318541;26;20225;-79
2024/04/20 03:14:28;;;;;;;4.90;4.40;;;;;;;8.72;58.46;100930.41;5313366;27;20281;-80
2024/04/20 03:16:53;;;;;;;5.63;4.33;;;;;;;8.72;58.16;100930.41;5314204;26;20222;-80
2024/04/20 03:19:19;;;;;;;5.33;4.70;;;;;;;8.82;58.42;100936.69;5315595;26;20284;-82
2024/04/20 03:21:44;;;;;;;4.57;4.17;;;;;;;8.83;58.15;100935.84;5313156;27;20233;-81
2024/04/20 03:24:09;;;;;;;5.83;4.23;;;;;;;8.66;58.49;100938.97;5322681;26;20226;-81
2024/04/20 03:26:35;;;;;;;4.50;4.10;;;;;;;8.82;57.96;100942.78;5322678;26;20272;-80
2024/04/20 03:29:00;;;;;;;4.10;3.70;;;;;;;8.64;58.12;100956.25;5316523;26;20670;-81
2024/04/20 03:31:26;;;;;;;3.60;3.30;;;;;;;8.79;57.69;100963.47;5314750;26;20818;-80
2024/04/20 03:33:57;;;;;;;5.50;3.97;;;;;;;8.86;56.78;100956.69;5315600;26;20234;-81
2024/04/20 03:36:22;;;;;;;16.30;12.23;;;;;;;8.63;57.55;100969.22;5315923;26;20218;-82
2024/04/20 03:38:48;;;;;;;19.50;16.30;;;;;;;8.18;58.54;100966.47;5314733;27;20520;-80
2024/04/20 03:41:13;;;;;;;5.60;4.77;;;;;;;8.37;58.66;100977.28;5315332;27;20712;-82
2024/04/20 03:43:38;;;;;;;7.30;6.60;;;;;;;8.42;58.29;100976.53;5315077;26;20223;-81
2024/04/20 03:46:04;;;;;;;4.67;3.80;;;;;;;8.39;58.08;100986.00;5313675;26;20222;-81
2024/04/20 03:48:30;;;;;;;5.00;4.27;;;;;;;8.40;58.83;100986.03;5314375;26;20310;-82
2024/04/20 03:50:56;;;;;;;4.23;3.83;;;;;;;8.62;57.75;100993.44;5312392;27;20226;-81
2024/04/20 03:53:23;;;;;;;4.97;4.40;;;;;;;8.53;57.69;101001.94;5313792;26;20433;-82
2024/04/20 03:55:49;;;;;;;3.80;3.50;;;;;;;8.03;58.50;101008.53;5313747;26;20528;-81
2024/04/20 03:58:14;;;;;;;5.03;4.37;;;;;;;8.50;57.67;100999.28;5313389;26;20808;-81
2024/04/20 04:00:39;;;;;;;4.33;3.93;;;;;;;8.35;57.93;101003.22;5313175;26;20449;-81
2024/04/20 04:03:05;;;;;;;4.53;4.13;;;;;;;8.55;57.64;101008.91;5318982;26;20605;-81
2024/04/20 04:05:30;;;;;;;4.37;3.90;;;;;;;8.30;57.62;101017.81;5311799;27;20253;-81
2024/04/20 04:07:55;;;;;;;23.80;17.07;;;;;;;8.49;57.65;101018.28;5313940;26;20226;-79
2024/04/20 04:10:20;;;;;;;6.00;4.47;;;;;;;8.32;57.29;101017.84;5313386;27;20736;-80
2024/04/20 04:12:46;;;;;;;5.33;4.00;;;;;;;8.30;57.42;101023.03;5315189;26;20218;-81
2024/04/20 04:15:11;;;;;;;4.20;3.80;;;;;;;8.11;57.84;101041.63;5314960;26;20264;-80
2024/04/20 04:17:36;;;;;;;4.03;3.63;;;;;;;8.36;57.28;101037.88;5314429;27;20253;-79
2024/04/20 04:20:02;;;;;;;4.00;3.57;;;;;;;8.11;57.76;101041.63;5316013;26;20724;-81
2024/04/20 04:22:28;;;;;;;4.07;3.67;;;;;;;8.31;57.38;101032.56;5313480;27;20301;-81
2024/04/20 04:24:53;;;;;;;7.20;3.43;;;;;;;8.23;57.59;101040.19;5312939;27;20277;-81
2024/04/20 04:27:18;;;;;;;3.23;2.93;;;;;;;8.28;57.77;101037.72;5312789;26;20445;-80
2024/04/20 04:29:44;;;;;;;4.10;3.70;;;;;;;8.36;57.68;101043.97;5312748;26;20234;-81
2024/04/20 04:32:09;;;;;;;4.30;3.80;;;;;;;8.26;57.17;101049.75;5311066;27;20230;-80
2024/04/20 04:34:37;;;;;;;4.73;4.33;;;;;;;8.55;57.91;101060.88;5312835;26;20272;-80
2024/04/20 04:37:02;;;;;;;4.70;4.10;;;;;;;8.46;57.61;101051.97;5312297;26;20280;-80
2024/04/20 04:39:27;;;;;;;5.57;4.00;;;;;;;8.54;57.14;101063.44;5312893;26;20469;-80
2024/04/20 04:41:53;;;;;;;9.80;8.23;;;;;;;8.28;57.15;101061.09;5312185;26;20222;-81
2024/04/20 04:44:18;;;;;;;5.60;4.70;;;;;;;8.30;57.96;101079.31;5312535;26;20264;-81
2024/04/20 04:46:43;;;;;;;4.50;4.10;;;;;;;8.21;57.27;101079.94;5312332;26;20304;-79
2024/04/20 04:49:09;;;;;;;4.97;3.77;;;;;;;8.31;57.44;101081.94;5323880;26;20257;-80
2024/04/20 04:51:34;;;;;;;4.30;3.90;;;;;;;8.46;57.65;101083.16;5314492;27;20276;-80
2024/04/20 04:53:59;;;;;;;4.67;4.27;;;;;;;8.03;58.32;101089.03;5312440;26;20293;-80
2024/04/20 04:56:26;;;;;;;4.67;4.27;;;;;;;8.25;57.47;101098.25;5312983;26;20226;-80
2024/04/20 04:58:55;;;;;;;4.67;4.27;;;;;;;8.25;58.17;101097.34;5312540;26;20347;-80
2024/04/20 05:01:20;;;;;;;4.20;3.80;;;;;;;8.38;57.05;101099.41;5312116;26;20449;-80
2024/04/20 05:03:45;;;;;;;4.30;3.90;;;;;;;8.57;56.30;101099.91;5312197;26;20496;-80
2024/04/20 05:06:10;;;;;;;7.00;4.93;;;;;;;8.46;57.70;101101.34;5313195;27;20239;-80
2024/04/20 05:08:36;;;;;;;4.87;4.40;;;;;;;8.53;56.89;101111.94;5316144;26;20230;-81
2024/04/20 05:11:01;;;;;;;4.67;4.07;;;;;;;8.22;58.11;101112.88;5314075;26;20270;-80
2024/04/20 05:13:26;;;;;;;8.93;7.63;;;;;;;8.60;56.84;101115.56;5312451;26;20230;-82
2024/04/20 05:15:52;;;;;;;4.80;4.37;;;;;;;8.10;57.80;101113.44;5313068;26;20594;-82
2024/04/20 05:18:18;;;;;;;5.33;4.10;;;;;;;8.62;56.38;101116.47;5319272;26;20226;-79
2024/04/20 05:20:44;;;;;;;4.80;4.30;;;;;;;8.40;56.81;101122.84;5325038;26;20226;-81
2024/04/20 05:23:11;;;;;;;5.27;4.47;;;;;;;8.81;57.27;101124.69;5323931;26;20453;-80
2024/04/20 05:25:36;;;;;;;5.77;4.30;;;;;;;8.88;57.06;101129.22;5317245;26;20265;-80
2024/04/20 05:28:01;;;;;;;4.87;4.30;;;;;;;8.93;57.24;101131.06;5317975;26;20452;-80
2024/04/20 05:30:27;;;;;;;4.67;4.20;;;;;;;8.95;56.54;101138.03;5321137;26;20222;-80
2024/04/20 05:32:55;;;;;;;5.03;4.43;;;;;;;9.16;56.51;101135.91;5319629;26;20284;-79
2024/04/20 05:35:20;;;;;;;4.30;3.90;;;;;;;9.06;56.51;101140.00;5321484;26;20410;-79
2024/04/20 05:37:46;;;;;;;4.33;3.93;;;;;;;9.04;56.68;101141.72;5319123;26;20441;-82
2024/04/20 05:40:11;;;;;;;4.57;4.00;;;;;;;8.96;56.06;101140.66;5323187;26;20732;-82
2024/04/20 05:42:36;;;;;;;4.97;4.27;;;;;;;9.15;56.62;101143.69;5323188;26;20218;-81
2024/04/20 05:45:02;;;;;;;4.60;4.20;;;;;;;9.38;56.29;101142.44;5324049;26;20265;-81
2024/04/20 05:47:27;;;;;;;9.60;4.00;;;;;;;9.34;55.94;101143.22;5319100;26;20268;-82
2024/04/20 05:49:52;;;;;;;6.03;5.20;;;;;;;9.21;56.37;101143.78;5323028;26;20230;-82
2024/04/20 05:52:17;;;;;;;5.10;4.60;;;;;;;9.53;55.86;101148.81;5315938;26;20221;-80
2024/04/20 05:54:43;;;;;;;4.83;4.17;;;;;;;9.40;56.07;101153.78;5315638;27;20260;-81
2024/04/20 05:57:08;;;;;;;5.57;4.47;;;;;;;9.65;56.57;101154.25;5314188;27;20650;-80
2024/04/20 05:59:34;;;;;;;4.50;4.10;;;;;;;9.23;56.71;101161.19;5315387;26;20234;-82
2024/04/20 06:01:59;;;;;;;5.00;4.50;;;;;;;9.61;56.39;101158.50;5315862;26;20633;-81
2024/04/20 06:04:24;;;;;;;6.00;5.20;;;;;;;9.77;56.38;101170.13;5318095;26;20340;-82
2024/04/20 06:06:50;;;;;;;5.33;4.83;;;;;;;9.94;56.16;101166.97;5315807;26;20414;-83
2024/04/20 06:09:15;;;;;;;6.10;5.60;;;;;;;10.14;55.44;101174.28;5318359;26;20234;-80
2024/04/20 06:11:40;;;;;;;5.10;3.97;;;;;;;10.10;55.44;101170.75;5316527;26;20305;-80
2024/04/20 06:14:06;;;;;;;5.80;4.20;;;;;;;10.11;55.44;101181.19;5316223;26;20222;-80
2024/04/20 06:16:31;;;;;;;4.77;4.30;;;;;;;10.26;55.56;101185.78;5319129;26;20226;-81
2024/04/20 06:18:57;;;;;;;4.50;4.10;;;;;;;10.28;55.41;101188.44;5319357;26;20517;-81
2024/04/20 06:21:22;;;;;;;4.77;4.37;;;;;;;10.41;55.09;101190.44;5315959;26;20269;-80
2024/04/20 06:23:47;;;;;;;4.63;4.23;;;;;;;10.81;53.77;101194.56;5316310;26;20305;-81
2024/04/20 06:26:13;;;;;;;5.00;4.50;;;;;;;10.68;54.13;101189.16;5315113;27;20256;-82
2024/04/20 06:28:38;;;;;;;5.00;4.50;;;;;;;10.18;55.40;101199.56;5316556;27;20238;-80
2024/04/20 06:31:04;;;;;;;5.10;4.60;;;;;;;11.05;54.26;101191.47;5314403;27;20234;-81
2024/04/20 06:33:29;;;;;;;5.30;4.80;;;;;;;10.72;55.34;101193.56;5322286;26;20616;-81
2024/04/20 06:35:54;;;;;;;4.47;4.07;;;;;;;10.65;54.86;101198.66;5326357;26;20234;-81
2024/04/20 06:38:20;;;;;;;5.53;5.00;;;;;;;10.28;55.36;101199.75;5319442;26;20727;-81
2024/04/20 06:40:46;;;;;;;5.47;4.97;;;;;;;10.61;54.54;101197.75;5316592;26;20268;-82
2024/04/20 06:43:11;;;;;;;4.77;4.30;;;;;;;11.09;54.67;101201.09;5315721;26;20226;-82
2024/04/20 06:45:36;;;;;;;4.97;4.47;;;;;;;10.76;55.31;101202.31;5315371;26;20222;-80
2024/04/20 06:48:02;;;;;;;5.20;4.60;;;;;;;11.28;54.35;101203.13;5315484;26;20331;-82
2024/04/20 06:50:27;;;;;;;5.23;4.07;;;;;;;11.19;53.81;101212.53;5320943;26;20241;-82
2024/04/20 06:52:52;;;;;;;6.87;4.33;;;;;;;11.42;54.16;101221.59;5320749;26;20667;-82
2024/04/20 06:55:18;;;;;;;4.43;4.03;;;;;;;11.54;53.89;101213.03;5317252;26;20712;-82
2024/04/20 06:57:43;;;;;;;5.30;3.90;;;;;;;11.83;53.52;101222.97;5317269;26;20257;-82
2024/04/20 07:00:10;;;;;;;5.60;4.50;;;;;;;11.78;53.76;101216.81;5315140;26;20237;-82
2024/04/20 07:02:35;;;;;;;6.13;4.50;;;;;;;11.92;53.17;101224.81;5315343;26;20617;-82
2024/04/20 07:05:00;;;;;;;15.20;11.93;;;;;;;12.01;53.19;101230.19;5315124;26;20496;-81
2024/04/20 07:07:26;;;;;;;6.73;6.03;;;;;;;11.74;52.79;101228.94;5314836;26;20256;-83
2024/04/20 07:09:51;;;;;;;5.60;5.10;;;;;;;11.83;52.00;101227.34;5314634;26;20242;-81
2024/04/20 07:12:17;;;;;;;4.63;3.90;;;;;;;12.02;52.45;101233.69;5314378;26;20605;-82
2024/04/20 07:14:42;;;;;;;5.87;3.93;;;;;;;11.88;53.10;101230.84;5314651;26;20739;-82
2024/04/20 07:17:08;;;;;;;6.87;4.70;;;;;;;11.85;52.90;101238.66;5315789;26;20226;-82
2024/04/20 07:19:33;;;;;;;6.13;5.53;;;;;;;11.31;52.88;101244.03;5321729;26;20292;-82
2024/04/20 07:21:59;;;;;;;3.93;3.53;;;;;;;10.95;53.86;101242.63;5319356;26;20336;-81
2024/04/20 07:24:24;;;;;;;5.07;4.57;;;;;;;11.50;54.14;101250.41;5314662;26;20253;-82
2024/04/20 07:26:50;;;;;;;7.43;3.77;;;;;;;11.69;53.01;101256.78;5315157;26;20743;-82
2024/04/20 07:29:15;;;;;;;5.07;3.80;;;;;;;11.95;52.51;101249.28;5314950;26;20234;-81
2024/04/20 07:31:40;;;;;;;6.63;4.53;;;;;;;12.30;52.75;101255.78;5314189;26;20293;-82
2024/04/20 07:34:05;;;;;;;6.13;5.13;;;;;;;12.09;52.21;101259.88;5314227;26;20625;-82
2024/04/20 07:36:31;;;;;;;4.10;3.70;;;;;;;12.04;52.37;101256.38;5314654;26;20234;-81
2024/04/20 07:38:56;;;;;;;5.30;4.20;;;;;;;12.56;52.47;101263.03;5314313;26;20234;-83
2024/04/20 07:41:21;;;;;;;4.60;4.10;;;;;;;12.50;51.82;101268.19;5314386;26;20268;-82
2024/04/20 07:43:47;;;;;;;4.90;4.10;;;;;;;12.66;51.46;101271.84;5314895;26;20222;-84
2024/04/20 07:46:12;;;;;;;6.43;4.00;;;;;;;12.74;51.28;101273.63;5315192;26;20294;-82
2024/04/20 07:48:38;;;;;;;6.13;4.03;;;;;;;12.63;51.08;101276.16;5322169;26;20826;-81
2024/04/20 07:51:04;;;;;;;5.70;4.03;;;;;;;12.66;51.51;101280.53;5311831;27;20264;-82
2024/04/20 07:53:29;;;;;;;4.40;4.00;;;;;;;12.38;51.60;101287.22;5314189;26;20453;-82
2024/04/20 07:55:55;;;;;;;5.23;4.00;;;;;;;12.01;51.92;101287.66;5320110;26;20497;-81
2024/04/20 07:58:21;;;;;;;4.47;3.90;;;;;;;12.16;51.68;101288.72;5318462;26;20238;-81
2024/04/20 08:00:46;;;;;;;4.87;3.97;;;;;;;12.52;51.42;101296.09;5319894;27;20579;-80
2024/04/20 08:03:19;;;;;;;6.30;4.10;;;;;;;12.77;50.25;101296.34;5322498;26;20214;-79
2024/04/20 08:05:44;;;;;;;4.20;3.80;;;;;;;12.93;50.70;101290.38;5325292;26;20225;-82
2024/04/20 08:08:10;;;;;;;4.10;3.70;;;;;;;13.01;50.65;101298.31;5318263;26;20445;-81
2024/04/20 08:10:35;;;;;;;5.10;3.87;;;;;;;13.10;50.86;101295.78;5302112;22;20279;-78
2024/04/20 08:13:00;;;;;;;3.87;3.57;;;;;;;13.27;49.69;101300.25;5277027;27;20262;-76
2024/04/20 08:15:26;;;;;;;4.50;4.10;;;;;;;13.23;48.86;101304.63;5276656;27;20783;-81
2024/04/20 08:17:51;;;;;;;6.40;3.97;;;;;;;12.74;49.31;101310.28;5276192;27;20668;-76
2024/04/20 08:20:17;;;;;;;5.10;3.50;;;;;;;12.25;49.27;101314.97;5276872;27;20234;-76
2024/04/20 08:22:43;;;;;;;6.63;4.20;;;;;;;12.40;49.28;101317.75;5247502;27;20571;-78
2024/04/20 08:25:08;;;;;;;4.43;4.03;;;;;;;12.57;49.57;101317.97;5277000;27;20454;-76
2024/04/20 08:27:34;;;;;;;8.53;5.30;;;;;;;13.14;48.88;101310.63;5276629;27;20274;-76
2024/04/20 08:30:00;;;;;;;4.50;3.87;;;;;;;12.79;48.13;101319.03;5247069;27;20243;-77
2024/04/20 08:32:25;;;;;;;4.10;3.70;;;;;;;12.20;50.07;101319.28;5247231;27;20438;-76
2024/04/20 08:34:51;;;;;;;6.10;4.20;;;;;;;12.22;50.61;101322.78;5277192;27;20254;-77
2024/04/20 08:37:19;;;;;;;6.87;4.63;;;;;;;12.49;49.70;101330.06;5247970;27;20222;-77
2024/04/20 08:39:45;;;;;;;5.60;4.73;;;;;;;12.73;48.10;101334.69;5246844;27;20576;-77
2024/04/20 08:42:33;;;;;;;4.37;3.73;;;;;;;12.75;48.32;101338.19;5277303;27;20427;-76
2024/04/20 08:45:01;;;;;;;5.10;4.60;;;;;;;12.62;48.73;101333.69;5277290;27;20235;-77
2024/04/20 08:47:28;;;;;;;4.57;3.40;;;;;;;12.64;49.48;101343.31;5246848;27;20458;-76
2024/04/20 08:49:53;;;;;;;5.33;3.93;;;;;;;11.99;50.60;101341.66;5275970;27;20466;-75
2024/04/20 08:52:19;;;;;;;4.13;3.30;;;;;;;12.18;49.52;101341.88;5277370;27;20427;-76
2024/04/20 08:54:46;;;;;;;4.60;3.70;;;;;;;12.91;47.61;101348.84;5276264;27;20231;-77
2024/04/20 08:57:12;;;;;;;4.50;3.80;;;;;;;13.15;48.25;101345.53;5246883;27;20243;-76
2024/04/20 08:59:37;;;;;;;4.27;3.87;;;;;;;13.29;47.14;101348.28;5246592;27;20589;-77
2024/04/20 09:02:13;;;;;;;4.80;3.40;;;;;;;13.56;45.76;101354.66;5277044;27;20257;-78
2024/04/20 09:04:39;;;;;;;3.90;3.50;;;;;;;13.61;45.33;101355.53;5276470;27;20321;-77
2024/04/20 09:07:05;;;;;;;4.00;3.50;;;;;;;13.39;44.66;101358.00;5276489;27;20454;-75
2024/04/20 09:09:31;;;;;;;4.30;3.70;;;;;;;13.13;46.64;101361.22;5246110;27;20517;-75
2024/04/20 09:11:57;;;;;;;5.50;3.17;;;;;;;12.99;46.93;101360.25;5275842;27;21037;-77
2024/04/20 09:14:23;;;;;;;5.83;3.57;;;;;;;12.44;48.04;101365.75;5277102;27;20450;-78
2024/04/20 09:16:49;;;;;;;5.50;3.50;;;;;;;12.94;48.06;101367.16;5250647;27;20630;-74
2024/04/20 09:19:16;;;;;;;4.63;4.13;;;;;;;13.31;46.77;101363.16;5280308;27;20454;-75
2024/04/20 09:21:41;;;;;;;4.90;3.63;;;;;;;13.37;45.19;101364.06;5249779;27;20501;-76
2024/04/20 09:24:07;;;;;;;6.63;3.60;;;;;;;13.75;45.95;101363.50;5279014;27;20426;-74
2024/04/20 09:26:33;;;;;;;3.93;3.53;;;;;;;13.50;46.53;101363.31;5278843;27;20321;-76
2024/04/20 09:28:59;;;;;;;6.27;4.47;;;;;;;13.06;47.53;101369.03;5249097;27;21089;-76
2024/04/20 09:31:26;;;;;;;4.63;4.10;;;;;;;12.33;50.35;101378.69;5279388;27;20535;-76
2024/04/20 09:33:52;;;;;;;6.00;4.60;;;;;;;12.46;51.33;101378.00;5279760;27;20430;-76
2024/04/20 09:36:17;;;;;;;5.47;4.40;;;;;;;13.19;49.49;101375.25;5279307;27;20779;-77
2024/04/20 09:38:42;;;;;;;4.30;3.90;;;;;;;13.14;48.86;101377.84;5249612;27;20239;-76
2024/04/20 09:41:08;;;;;;;5.73;3.77;;;;;;;12.88;49.18;101378.47;5279470;27;20265;-76
2024/04/20 09:43:36;;;;;;;4.40;3.80;;;;;;;12.68;48.44;101377.34;5280485;27;20726;-78
2024/04/20 09:46:03;;;;;;;4.03;3.63;;;;;;;13.00;48.13;101375.06;5250564;27;20450;-77
2024/04/20 09:48:31;;;;;;;9.17;3.93;;;;;;;13.54;47.02;101385.19;5283862;27;20426;-78
2024/04/20 09:51:20;;;;;;;5.63;3.97;;;;;;;12.42;49.62;101385.75;5253671;27;20564;-77
2024/04/20 09:53:51;;;;;;;4.30;3.90;;;;;;;13.01;48.99;101387.28;5288495;27;20521;-77
2024/04/20 09:56:19;;;;;;;4.87;4.37;;;;;;;12.08;50.11;101391.44;5288457;27;20418;-77
2024/04/20 09:58:46;;;;;;;6.07;4.27;;;;;;;13.16;48.70;101385.69;5254948;27;20446;-77
2024/04/20 10:01:12;;;;;;;5.80;4.00;;;;;;;12.66;48.98;101394.78;5282340;27;20434;-77
2024/04/20 10:03:37;;;;;;;4.73;3.53;;;;;;;12.88;49.61;101395.88;5256108;27;20455;-76
2024/04/20 10:06:04;;;;;;;6.10;3.73;;;;;;;13.60;46.93;101388.72;5283181;27;20227;-76
2024/04/20 10:08:31;;;;;;;4.57;3.97;;;;;;;14.11;45.50;101389.06;5282660;27;20706;-78
2024/04/20 10:10:57;;;;;;;4.17;3.77;;;;;;;14.08;45.36;101394.25;5282764;27;20454;-76
2024/04/20 10:13:23;;;;;;;5.40;3.87;;;;;;;14.45;44.76;101391.84;5249287;27;20545;-76
2024/04/20 10:15:53;;;;;;;4.03;3.63;;;;;;;13.92;46.37;101390.69;5249238;27;20281;-76
2024/04/20 10:18:19;;;;;;;5.50;3.70;;;;;;;13.71;46.13;101393.19;5278743;27;20450;-76
2024/04/20 10:20:44;;;;;;;5.47;4.17;;;;;;;14.00;44.76;101393.34;5278792;27;20502;-76
2024/04/20 10:23:18;;;;;;;6.10;4.40;;;;;;;14.61;44.44;101387.53;5279493;27;20333;-76
2024/04/20 10:25:48;;;;;;;4.17;3.77;;;;;;;14.83;42.55;101390.25;5248547;27;20697;-76
2024/04/20 10:28:35;;;;;;;6.27;3.67;;;;;;;14.90;42.77;101393.78;5279412;27;20757;-78
2024/04/20 10:31:01;;;;;;;4.10;3.40;;;;;;;15.03;42.85;101389.41;5282120;27;20473;-77
2024/04/20 10:33:32;;;;;;;4.47;3.50;;;;;;;15.52;42.71;101388.53;5280394;27;20535;-79
2024/04/20 10:35:59;;;;;;;6.40;3.70;;;;;;;15.48;42.35;101395.56;5279246;27;21039;-76
2024/04/20 10:38:26;;;;;;;6.10;3.90;;;;;;;15.78;41.17;101393.81;5248569;27;20438;-76
2024/04/20 10:40:51;;;;;;;4.83;3.67;;;;;;;15.83;42.55;101390.31;5279274;27;20427;-77
2024/04/20 10:43:21;;;;;;;4.13;3.73;;;;;;;16.21;40.66;101396.38;5279132;27;20510;-76
2024/04/20 10:45:58;;;;;;;4.20;3.50;;;;;;;15.21;40.86;101399.94;5278687;27;20277;-77
2024/04/20 10:48:24;;;;;;;3.73;3.23;;;;;;;15.92;41.39;101394.66;5279167;27;20848;-77
2024/04/20 10:50:57;;;;;;;5.83;3.40;;;;;;;15.56;40.35;101393.81;5278792;27;20824;-77
2024/04/20 10:53:24;;;;;;;5.00;3.00;;;;;;;15.56;39.81;101408.69;5246331;27;20490;-77
2024/04/20 10:55:55;;;;;;;3.90;3.50;;;;;;;15.08;42.24;101425.28;5278829;27;20519;-77
2024/04/20 10:58:20;;;;;;;13.37;9.17;;;;;;;14.43;43.78;101425.03;5248482;27;20553;-78
2024/04/20 11:00:46;;;;;;;6.90;4.20;;;;;;;13.77;45.69;101438.66;5249276;27;20466;-77
2024/04/20 11:03:13;;;;;;;4.43;3.53;;;;;;;13.48;46.23;101446.25;5278935;27;20277;-77
2024/04/20 11:05:38;;;;;;;4.77;3.50;;;;;;;13.53;46.72;101443.66;5248732;27;20271;-75
2024/04/20 11:08:04;;;;;;;20.83;14.83;;;;;;;13.45;46.49;101448.88;5278945;27;20892;-78
2024/04/20 11:10:30;;;;;;;4.00;3.50;;;;;;;13.90;46.38;101449.22;5278585;27;20243;-77
2024/04/20 11:13:03;;;;;;;4.33;3.10;;;;;;;13.71;46.13;101449.06;5278844;27;20439;-76
2024/04/20 11:15:29;;;;;;;5.07;3.67;;;;;;;13.39;46.28;101447.03;5279633;27;20451;-77
2024/04/20 11:17:55;;;;;;;4.53;3.73;;;;;;;13.69;46.28;101449.91;5278710;27;20431;-76
2024/04/20 11:20:21;;;;;;;4.43;3.53;;;;;;;14.75;46.25;101442.72;5278624;27;20470;-77
2024/04/20 11:22:46;;;;;;;4.80;3.50;;;;;;;14.19;45.53;101451.16;5278752;27;20565;-76